Time;durP1;ratioP1;P1;durP2;ratioP2;P2;SDS_P1;SDS_P2;PMS_P1;PMS_P2;Temp;Humidity;BMP_temperature;BMP_pressure;BME280_temperature;BME280_humidity;BME280_pressure;Samples;Min_cycle;Max_cycle;Signal;HPM_P1;HPM_P2
2021/10/14 00:00:14;;;;;;;;;54.50;45.00;;;;;;;;5073016;27;45482;-73
2021/10/14 00:02:39;;;;;;;;;47.75;42.75;;;;;;;;5080538;27;46272;-76
2021/10/14 00:05:04;;;;;;;;;52.75;44.75;;;;;;;;5078831;27;45367;-75
2021/10/14 00:07:29;;;;;;;;;51.25;42.25;;;;;;;;5078550;27;45421;-75
2021/10/14 00:09:55;;;;;;;;;57.25;44.75;;;;;;;;5079059;27;45434;-75
2021/10/14 00:12:20;;;;;;;;;58.25;46.50;;;;;;;;5075690;27;46570;-75
2021/10/14 00:14:45;;;;;;;;;56.25;46.00;;;;;;;;5079071;27;45316;-75
2021/10/14 00:17:11;;;;;;;;;63.75;51.25;;;;;;;;5079583;27;45221;-75
2021/10/14 00:19:36;;;;;;;;;68.00;55.50;;;;;;;;5078682;27;45458;-75
2021/10/14 00:22:01;;;;;;;;;73.75;58.75;;;;;;;;5078297;27;45911;-75
2021/10/14 00:24:26;;;;;;;;;75.75;57.25;;;;;;;;5076462;27;45451;-74
2021/10/14 00:26:51;;;;;;;;;80.75;59.75;;;;;;;;5077703;27;45401;-74
2021/10/14 00:29:17;;;;;;;;;72.75;56.00;;;;;;;;5079841;27;45558;-74
2021/10/14 00:31:42;;;;;;;;;79.75;61.00;;;;;;;;5078443;27;45402;-74
2021/10/14 00:34:07;;;;;;;;;81.00;62.50;;;;;;;;5077929;27;45367;-73
2021/10/14 00:36:33;;;;;;;;;78.00;61.50;;;;;;;;5075539;27;45592;-74
2021/10/14 00:38:58;;;;;;;;;71.75;54.75;;;;;;;;5076167;27;45600;-74
2021/10/14 00:41:23;;;;;;;;;64.00;50.50;;;;;;;;5078254;27;46099;-73
2021/10/14 00:43:53;;;;;;;;;68.75;52.50;;;;;;;;5078444;27;45335;-75
2021/10/14 00:46:19;;;;;;;;;58.75;47.00;;;;;;;;5078459;27;45387;-73
2021/10/14 00:48:44;;;;;;;;;55.00;45.25;;;;;;;;5078160;27;45371;-73
2021/10/14 00:51:09;;;;;;;;;55.25;44.75;;;;;;;;5073376;27;46286;-74
2021/10/14 00:53:36;;;;;;;;;54.50;44.50;;;;;;;;5080371;27;45490;-74
2021/10/14 00:56:01;;;;;;;;;56.50;46.50;;;;;;;;5078330;27;45552;-73
2021/10/14 00:58:27;;;;;;;;;52.50;43.25;;;;;;;;5078046;27;45341;-75
2021/10/14 01:00:52;;;;;;;;;55.25;44.75;;;;;;;;5077929;27;47241;-74
2021/10/14 01:03:17;;;;;;;;;65.00;51.25;;;;;;;;5074071;27;45425;-74
2021/10/14 01:05:42;;;;;;;;;65.25;52.50;;;;;;;;5079506;27;45429;-73
2021/10/14 01:08:07;;;;;;;;;73.50;55.00;;;;;;;;5078439;27;45529;-76
2021/10/14 01:10:33;;;;;;;;;62.50;49.75;;;;;;;;5077854;27;46071;-74
2021/10/14 01:12:59;;;;;;;;;69.00;56.00;;;;;;;;5077076;27;45410;-73
2021/10/14 01:15:25;;;;;;;;;69.00;54.50;;;;;;;;5073984;27;45237;-74
2021/10/14 01:17:51;;;;;;;;;59.50;47.00;;;;;;;;5076828;27;45632;-76
2021/10/14 01:20:16;;;;;;;;;62.75;49.00;;;;;;;;5077552;27;45374;-75
2021/10/14 01:22:42;;;;;;;;;58.00;48.25;;;;;;;;5077712;27;45450;-76
2021/10/14 01:25:07;;;;;;;;;55.25;45.25;;;;;;;;5078081;27;45421;-75
2021/10/14 01:27:33;;;;;;;;;60.50;48.75;;;;;;;;5075959;27;45312;-75
2021/10/14 01:29:58;;;;;;;;;57.75;46.75;;;;;;;;5075070;27;45438;-75
2021/10/14 01:32:23;;;;;;;;;59.25;47.50;;;;;;;;5079546;27;45595;-75
2021/10/14 01:34:48;;;;;;;;;65.50;51.00;;;;;;;;5077908;27;45395;-75
2021/10/14 01:37:13;;;;;;;;;53.25;44.50;;;;;;;;5077941;27;45413;-75
2021/10/14 01:39:38;;;;;;;;;61.00;48.00;;;;;;;;5076837;27;45346;-75
2021/10/14 01:42:04;;;;;;;;;61.25;48.00;;;;;;;;5074284;27;45582;-74
2021/10/14 01:44:29;;;;;;;;;58.50;46.00;;;;;;;;5079765;27;45359;-74
2021/10/14 01:46:54;;;;;;;;;68.25;53.00;;;;;;;;5077073;27;45477;-74
2021/10/14 01:49:19;;;;;;;;;60.75;49.75;;;;;;;;5077556;27;45358;-74
2021/10/14 01:51:44;;;;;;;;;57.25;45.00;;;;;;;;5059520;27;45565;-74
2021/10/14 01:54:10;;;;;;;;;55.00;42.75;;;;;;;;5072525;28;45279;-75
2021/10/14 01:56:35;;;;;;;;;46.75;39.00;;;;;;;;5079386;27;45548;-76
2021/10/14 01:59:00;;;;;;;;;54.75;43.50;;;;;;;;5075618;27;45499;-76
2021/10/14 02:01:25;;;;;;;;;48.00;37.75;;;;;;;;5077243;27;45323;-74
2021/10/14 02:03:50;;;;;;;;;50.25;41.25;;;;;;;;5059437;27;45433;-74
2021/10/14 02:06:16;;;;;;;;;47.00;38.50;;;;;;;;5073625;27;45485;-74
2021/10/14 02:08:41;;;;;;;;;46.75;36.25;;;;;;;;5079168;27;46303;-74
2021/10/14 02:11:06;;;;;;;;;31.00;26.00;;;;;;;;5077194;27;45319;-73
2021/10/14 02:13:32;;;;;;;;;36.00;31.00;;;;;;;;5077499;27;45473;-74
2021/10/14 02:15:57;;;;;;;;;38.50;33.50;;;;;;;;5076903;27;45456;-74
2021/10/14 02:18:22;;;;;;;;;33.25;32.50;;;;;;;;5072419;27;47171;-74
2021/10/14 02:20:47;;;;;;;;;34.50;33.00;;;;;;;;5076982;27;45732;-74
2021/10/14 02:23:12;;;;;;;;;31.00;30.25;;;;;;;;5060191;27;45469;-75
2021/10/14 02:25:38;;;;;;;;;39.25;33.00;;;;;;;;5080830;27;45380;-74
2021/10/14 02:28:03;;;;;;;;;34.00;32.25;;;;;;;;5080342;27;45470;-74
2021/10/14 02:30:28;;;;;;;;;31.50;29.25;;;;;;;;5077798;27;45420;-74
2021/10/14 02:32:53;;;;;;;;;30.50;27.25;;;;;;;;5079265;27;45327;-74
2021/10/14 02:35:19;;;;;;;;;30.25;25.75;;;;;;;;5080129;27;45479;-74
2021/10/14 02:37:44;;;;;;;;;31.75;28.50;;;;;;;;5078667;27;46063;-74
2021/10/14 02:40:09;;;;;;;;;32.75;29.75;;;;;;;;5080446;27;45371;-74
2021/10/14 02:42:34;;;;;;;;;29.00;28.25;;;;;;;;5079335;27;45391;-75
2021/10/14 02:45:00;;;;;;;;;28.25;27.75;;;;;;;;5076796;27;45283;-75
2021/10/14 02:47:25;;;;;;;;;27.00;24.75;;;;;;;;5082010;27;46332;-75
2021/10/14 02:49:50;;;;;;;;;29.00;24.25;;;;;;;;5079995;27;45525;-75
2021/10/14 02:52:15;;;;;;;;;27.25;26.25;;;;;;;;5080227;27;45395;-75
2021/10/14 02:54:41;;;;;;;;;32.00;29.50;;;;;;;;5080261;27;45481;-74
2021/10/14 02:57:06;;;;;;;;;26.50;25.25;;;;;;;;5075662;27;45397;-75
2021/10/14 02:59:31;;;;;;;;;33.25;28.25;;;;;;;;5081392;27;45525;-75
2021/10/14 03:01:56;;;;;;;;;27.25;27.00;;;;;;;;5079669;27;45277;-74
2021/10/14 03:04:22;;;;;;;;;27.75;27.00;;;;;;;;5079788;27;45299;-74
2021/10/14 03:06:47;;;;;;;;;34.25;29.25;;;;;;;;5079584;27;46290;-75
2021/10/14 03:09:12;;;;;;;;;32.00;27.75;;;;;;;;5057311;27;45835;-75
2021/10/14 03:11:37;;;;;;;;;23.75;19.75;;;;;;;;5082013;27;45327;-75
2021/10/14 03:14:03;;;;;;;;;27.25;25.50;;;;;;;;5078067;27;45362;-75
2021/10/14 03:16:28;;;;;;;;;29.25;24.50;;;;;;;;5077983;27;47148;-75
2021/10/14 03:18:55;;;;;;;;;32.25;29.75;;;;;;;;5079528;27;45420;-75
2021/10/14 03:21:20;;;;;;;;;24.75;23.50;;;;;;;;5077100;27;45533;-75
2021/10/14 03:23:45;;;;;;;;;25.25;23.75;;;;;;;;5080381;27;45477;-76
2021/10/14 03:26:10;;;;;;;;;25.75;22.25;;;;;;;;5079703;27;45394;-75
2021/10/14 03:28:35;;;;;;;;;19.75;18.25;;;;;;;;5078920;27;45506;-74
2021/10/14 03:31:01;;;;;;;;;28.00;27.75;;;;;;;;5079421;27;45363;-75
2021/10/14 03:33:26;;;;;;;;;25.25;23.75;;;;;;;;5077027;27;45348;-76
2021/10/14 03:35:51;;;;;;;;;26.00;24.25;;;;;;;;5077223;27;47367;-75
2021/10/14 03:38:16;;;;;;;;;29.00;26.50;;;;;;;;5080746;27;45276;-75
2021/10/14 03:40:42;;;;;;;;;29.25;26.00;;;;;;;;5079199;27;46028;-75
2021/10/14 03:43:07;;;;;;;;;28.75;25.25;;;;;;;;5078602;27;45339;-75
2021/10/14 03:45:32;;;;;;;;;29.75;28.00;;;;;;;;5077049;27;45368;-75
2021/10/14 03:47:58;;;;;;;;;30.75;27.50;;;;;;;;5057240;28;46033;-75
2021/10/14 03:50:23;;;;;;;;;33.75;27.50;;;;;;;;5080737;27;45347;-75
2021/10/14 03:52:48;;;;;;;;;28.25;26.50;;;;;;;;5077341;27;45435;-76
2021/10/14 03:55:14;;;;;;;;;33.50;30.25;;;;;;;;5077073;27;45684;-75
2021/10/14 03:57:39;;;;;;;;;18.25;18.25;;;;;;;;5077343;27;45393;-75
2021/10/14 04:00:06;;;;;;;;;25.75;22.00;;;;;;;;5074899;27;45329;-75
2021/10/14 04:02:31;;;;;;;;;23.50;21.50;;;;;;;;5080695;27;45387;-75
2021/10/14 04:04:56;;;;;;;;;28.00;25.25;;;;;;;;5078523;27;46310;-75
2021/10/14 04:07:21;;;;;;;;;27.50;25.75;;;;;;;;5060287;27;45430;-75
2021/10/14 04:09:47;;;;;;;;;26.00;24.50;;;;;;;;5078727;27;46778;-75
2021/10/14 04:12:12;;;;;;;;;28.25;26.50;;;;;;;;5073935;27;45482;-77
2021/10/14 04:14:37;;;;;;;;;28.75;26.00;;;;;;;;5080853;27;46239;-78
2021/10/14 04:17:02;;;;;;;;;26.50;25.00;;;;;;;;5078545;27;45439;-76
2021/10/14 04:19:27;;;;;;;;;32.00;26.75;;;;;;;;5078707;27;45573;-77
2021/10/14 04:21:53;;;;;;;;;36.50;30.75;;;;;;;;5078123;27;45438;-76
2021/10/14 04:24:19;;;;;;;;;23.00;21.00;;;;;;;;5073135;27;45944;-77
2021/10/14 04:26:44;;;;;;;;;27.50;26.00;;;;;;;;5095351;27;45376;-77
2021/10/14 04:29:10;;;;;;;;;33.00;30.00;;;;;;;;5078603;27;45508;-78
2021/10/14 04:31:35;;;;;;;;;31.75;29.00;;;;;;;;5076719;27;45390;-77
2021/10/14 04:34:01;;;;;;;;;31.25;27.75;;;;;;;;5076144;27;45596;-76
2021/10/14 04:36:26;;;;;;;;;32.75;28.00;;;;;;;;5075356;27;45461;-76
2021/10/14 04:38:53;;;;;;;;;29.25;26.50;;;;;;;;5076555;27;45380;-77
2021/10/14 04:41:18;;;;;;;;;31.75;30.00;;;;;;;;5078639;27;45307;-77
2021/10/14 04:43:43;;;;;;;;;37.75;34.25;;;;;;;;5077750;27;45306;-77
2021/10/14 04:46:08;;;;;;;;;35.75;31.75;;;;;;;;5076959;27;45250;-76
2021/10/14 04:48:34;;;;;;;;;30.25;24.50;;;;;;;;5075706;27;45242;-76
2021/10/14 04:50:59;;;;;;;;;31.75;27.25;;;;;;;;5075018;27;45438;-77
2021/10/14 04:53:24;;;;;;;;;30.50;26.50;;;;;;;;5080059;27;46021;-77
2021/10/14 04:55:49;;;;;;;;;28.00;25.75;;;;;;;;5081379;27;45441;-77
2021/10/14 04:58:14;;;;;;;;;31.00;28.25;;;;;;;;5083721;27;45469;-76
2021/10/14 05:00:40;;;;;;;;;30.25;26.75;;;;;;;;5077781;27;45470;-78
2021/10/14 05:03:05;;;;;;;;;25.25;20.00;;;;;;;;5073734;27;47103;-77
2021/10/14 05:05:30;;;;;;;;;29.00;25.00;;;;;;;;5079018;27;45296;-77
2021/10/14 05:07:55;;;;;;;;;30.50;24.75;;;;;;;;5077050;27;45427;-76
2021/10/14 05:10:20;;;;;;;;;31.75;27.75;;;;;;;;5075559;27;45266;-78
2021/10/14 05:12:46;;;;;;;;;29.00;28.25;;;;;;;;5075106;27;47385;-77
2021/10/14 05:15:11;;;;;;;;;30.25;28.75;;;;;;;;5072281;27;45386;-75
2021/10/14 05:17:36;;;;;;;;;23.75;23.00;;;;;;;;5078753;27;45303;-75
2021/10/14 05:20:03;;;;;;;;;38.25;33.00;;;;;;;;5076296;27;45242;-75
2021/10/14 05:22:28;;;;;;;;;27.75;23.75;;;;;;;;5075834;27;46764;-74
2021/10/14 05:24:53;;;;;;;;;32.25;30.50;;;;;;;;5076275;27;45402;-74
2021/10/14 05:27:18;;;;;;;;;34.25;30.75;;;;;;;;5073052;27;45530;-74
2021/10/14 05:29:44;;;;;;;;;31.25;28.75;;;;;;;;5077260;27;45492;-77
2021/10/14 05:32:09;;;;;;;;;35.25;31.00;;;;;;;;5076326;27;45354;-74
2021/10/14 05:34:35;;;;;;;;;34.00;32.00;;;;;;;;5076044;27;45538;-74
2021/10/14 05:37:01;;;;;;;;;35.00;29.25;;;;;;;;5076449;27;45543;-75
2021/10/14 05:39:26;;;;;;;;;32.75;27.25;;;;;;;;5073138;27;45505;-75
2021/10/14 05:41:51;;;;;;;;;31.50;29.25;;;;;;;;5075066;27;45540;-74
2021/10/14 05:44:16;;;;;;;;;35.25;30.00;;;;;;;;5058585;28;45445;-75
2021/10/14 05:46:42;;;;;;;;;32.75;26.75;;;;;;;;5076332;27;45801;-73
2021/10/14 05:49:07;;;;;;;;;33.75;31.75;;;;;;;;5074528;27;45443;-74
2021/10/14 05:51:32;;;;;;;;;33.25;30.00;;;;;;;;5072703;27;46444;-74
2021/10/14 05:53:57;;;;;;;;;39.75;36.25;;;;;;;;5073601;27;45524;-74
2021/10/14 05:56:24;;;;;;;;;44.25;38.25;;;;;;;;5078624;27;45415;-75
2021/10/14 05:58:49;;;;;;;;;33.75;30.75;;;;;;;;5077668;27;45496;-77
2021/10/14 06:01:15;;;;;;;;;37.75;33.75;;;;;;;;5079752;27;47155;-77
2021/10/14 06:03:40;;;;;;;;;38.00;36.25;;;;;;;;5079209;27;45316;-76
2021/10/14 06:06:05;;;;;;;;;47.50;39.00;;;;;;;;5076187;27;45498;-77
2021/10/14 06:08:30;;;;;;;;;50.25;39.75;;;;;;;;5081353;27;45332;-76
2021/10/14 06:10:56;;;;;;;;;38.75;34.00;;;;;;;;5078901;27;45431;-77
2021/10/14 06:13:21;;;;;;;;;44.25;35.00;;;;;;;;5078979;27;45382;-77
2021/10/14 06:15:46;;;;;;;;;41.50;35.75;;;;;;;;5079223;27;45386;-76
2021/10/14 06:18:11;;;;;;;;;29.75;26.50;;;;;;;;5056212;28;45512;-76
2021/10/14 06:20:37;;;;;;;;;41.25;35.00;;;;;;;;5081095;27;46329;-76
2021/10/14 06:23:02;;;;;;;;;39.25;34.75;;;;;;;;5078920;27;45306;-76
2021/10/14 06:25:27;;;;;;;;;47.25;40.75;;;;;;;;5077160;27;45816;-76
2021/10/14 06:27:53;;;;;;;;;41.50;37.50;;;;;;;;5077902;27;45514;-77
2021/10/14 06:30:18;;;;;;;;;41.25;34.50;;;;;;;;5075448;27;46264;-74
2021/10/14 06:32:43;;;;;;;;;48.00;38.50;;;;;;;;5080190;27;45577;-76
2021/10/14 06:35:09;;;;;;;;;41.50;35.50;;;;;;;;5061089;28;45363;-75
2021/10/14 06:37:34;;;;;;;;;46.00;38.75;;;;;;;;5078611;27;45261;-74
2021/10/14 06:39:59;;;;;;;;;45.25;35.75;;;;;;;;5078594;27;46271;-74
2021/10/14 06:42:25;;;;;;;;;44.25;37.00;;;;;;;;5076478;27;45623;-74
2021/10/14 06:44:50;;;;;;;;;33.50;32.00;;;;;;;;5078136;27;45407;-74
2021/10/14 06:47:15;;;;;;;;;49.25;38.00;;;;;;;;5079417;27;45763;-75
2021/10/14 06:49:40;;;;;;;;;40.75;35.00;;;;;;;;5078285;27;46957;-75
2021/10/14 06:52:06;;;;;;;;;43.75;35.50;;;;;;;;5077889;27;45490;-74
2021/10/14 06:54:31;;;;;;;;;41.50;35.75;;;;;;;;5076938;27;45172;-74
2021/10/14 06:56:56;;;;;;;;;43.50;35.25;;;;;;;;5076911;27;45206;-73
2021/10/14 06:59:21;;;;;;;;;48.25;37.25;;;;;;;;5079455;27;47319;-74
2021/10/14 07:01:47;;;;;;;;;46.00;37.25;;;;;;;;5078801;27;45429;-74
2021/10/14 07:04:12;;;;;;;;;39.00;34.75;;;;;;;;5078315;27;45464;-74
2021/10/14 07:06:37;;;;;;;;;40.00;35.25;;;;;;;;5075640;27;45466;-75
2021/10/14 07:09:02;;;;;;;;;40.75;34.25;;;;;;;;5074922;27;46212;-75
2021/10/14 07:11:32;;;;;;;;;43.75;38.00;;;;;;;;5092861;27;45416;-75
2021/10/14 07:13:57;;;;;;;;;45.50;37.00;;;;;;;;5079650;27;45392;-75
2021/10/14 07:16:23;;;;;;;;;52.75;42.75;;;;;;;;5077812;27;45393;-76
2021/10/14 07:18:48;;;;;;;;;37.25;33.50;;;;;;;;5077617;27;46886;-75
2021/10/14 07:21:14;;;;;;;;;42.00;35.00;;;;;;;;5073146;27;45417;-76
2021/10/14 07:23:39;;;;;;;;;41.00;34.75;;;;;;;;5081282;27;45402;-73
2021/10/14 07:26:04;;;;;;;;;43.75;36.25;;;;;;;;5078202;27;45556;-76
2021/10/14 07:28:30;;;;;;;;;36.50;34.00;;;;;;;;5078052;27;45859;-75
2021/10/14 07:30:55;;;;;;;;;45.50;38.25;;;;;;;;5077752;27;45684;-74
2021/10/14 07:33:20;;;;;;;;;44.00;36.00;;;;;;;;5074385;27;45501;-75
2021/10/14 07:35:46;;;;;;;;;45.50;39.75;;;;;;;;5077565;27;45467;-75
2021/10/14 07:38:11;;;;;;;;;40.50;33.00;;;;;;;;5078204;27;45420;-75
2021/10/14 07:40:41;;;;;;;;;52.50;39.25;;;;;;;;5077982;27;45542;-73
2021/10/14 07:43:10;;;;;;;;;41.75;33.75;;;;;;;;5077776;27;45303;-74
2021/10/14 07:45:36;;;;;;;;;44.00;35.75;;;;;;;;5075908;27;45554;-72
2021/10/14 07:48:02;;;;;;;;;49.75;38.00;;;;;;;;5074652;27;45219;-75
2021/10/14 07:50:28;;;;;;;;;47.25;37.00;;;;;;;;5059275;28;45443;-72
2021/10/14 07:52:53;;;;;;;;;45.25;37.00;;;;;;;;5077783;27;45379;-73
2021/10/14 07:55:18;;;;;;;;;47.50;40.50;;;;;;;;5059222;28;45285;-73
2021/10/14 07:57:44;;;;;;;;;49.00;39.25;;;;;;;;5077336;27;45407;-75
2021/10/14 08:00:10;;;;;;;;;45.75;37.75;;;;;;;;5073328;27;45268;-74
2021/10/14 08:02:35;;;;;;;;;50.25;41.25;;;;;;;;5079097;27;45352;-74
2021/10/14 08:05:00;;;;;;;;;45.00;39.00;;;;;;;;5076871;27;45445;-74
2021/10/14 08:07:26;;;;;;;;;46.25;39.00;;;;;;;;5076976;27;45727;-73
2021/10/14 08:09:51;;;;;;;;;42.75;39.00;;;;;;;;5077235;27;45347;-73
2021/10/14 08:12:16;;;;;;;;;47.25;38.75;;;;;;;;5073603;27;45339;-75
2021/10/14 08:14:41;;;;;;;;;45.25;35.50;;;;;;;;5079052;27;45395;-75
2021/10/14 08:17:06;;;;;;;;;46.75;38.25;;;;;;;;5077115;27;46139;-73
2021/10/14 08:19:32;;;;;;;;;47.50;38.75;;;;;;;;5059146;27;45605;-75
2021/10/14 08:21:57;;;;;;;;;54.50;43.25;;;;;;;;5077282;27;45327;-73
2021/10/14 08:24:24;;;;;;;;;46.50;38.50;;;;;;;;5072869;27;45594;-73
2021/10/14 08:26:49;;;;;;;;;52.75;41.75;;;;;;;;5076957;27;46418;-75
2021/10/14 08:29:16;;;;;;;;;44.75;37.00;;;;;;;;5076835;27;45387;-75
2021/10/14 08:31:41;;;;;;;;;48.75;38.75;;;;;;;;5077427;27;45402;-74
2021/10/14 08:34:07;;;;;;;;;48.75;39.25;;;;;;;;5077028;27;45538;-74
2021/10/14 08:36:32;;;;;;;;;53.50;42.25;;;;;;;;5075442;27;47015;-72
2021/10/14 08:38:57;;;;;;;;;50.00;42.50;;;;;;;;5074740;27;45324;-74
2021/10/14 08:41:22;;;;;;;;;44.50;40.25;;;;;;;;5079371;27;45455;-74
2021/10/14 08:43:48;;;;;;;;;48.25;41.75;;;;;;;;5076782;27;45444;-74
2021/10/14 08:46:13;;;;;;;;;49.75;41.00;;;;;;;;5076205;27;46612;-74
2021/10/14 08:48:39;;;;;;;;;46.50;41.75;;;;;;;;5075055;27;45355;-75
2021/10/14 08:51:04;;;;;;;;;44.75;39.50;;;;;;;;5073803;27;47254;-73
2021/10/14 08:53:29;;;;;;;;;49.50;42.75;;;;;;;;5078829;27;45392;-76
2021/10/14 08:55:55;;;;;;;;;44.50;38.00;;;;;;;;5076650;27;45429;-73
2021/10/14 08:58:20;;;;;;;;;46.25;39.50;;;;;;;;5076970;27;45534;-74
2021/10/14 09:01:21;;;;;;;;;51.75;41.75;;;;;;;;5077038;27;46006;-74
2021/10/14 09:03:52;;;;;;;;;48.75;40.25;;;;;;;;4995346;28;45507;-74
2021/10/14 09:06:17;;;;;;;;;49.50;42.75;;;;;;;;4991436;28;47089;-74
2021/10/14 09:08:43;;;;;;;;;39.00;35.50;;;;;;;;4995064;28;45585;-75
2021/10/14 09:11:10;;;;;;;;;44.75;36.25;;;;;;;;4995072;28;45384;-74
2021/10/14 09:13:36;;;;;;;;;44.00;36.50;;;;;;;;4994938;28;45523;-74
2021/10/14 09:16:21;;;;;;;;;39.25;35.25;;;;;;;;4994504;28;45980;-74
2021/10/14 09:18:50;;;;;;;;;47.75;38.75;;;;;;;;4994545;28;45480;-74
2021/10/14 09:21:25;;;;;;;;;45.00;38.25;;;;;;;;4990932;28;45474;-74
2021/10/14 09:23:51;;;;;;;;;47.00;37.75;;;;;;;;4993531;28;45338;-74
2021/10/14 09:26:26;;;;;;;;;42.50;36.75;;;;;;;;4994947;28;46286;-74
2021/10/14 09:29:03;;;;;;;;;44.50;37.00;;;;;;;;4995166;28;45439;-74
2021/10/14 09:31:28;;;;;;;;;47.50;37.00;;;;;;;;4994548;28;45294;-73
2021/10/14 09:33:53;;;;;;;;;40.50;33.50;;;;;;;;4996482;28;45496;-74
2021/10/14 09:36:23;;;;;;;;;38.50;35.50;;;;;;;;4995164;28;46078;-75
2021/10/14 09:39:06;;;;;;;;;45.25;36.75;;;;;;;;5074304;27;45194;-74
2021/10/14 09:41:36;;;;;;;;;42.75;36.75;;;;;;;;5080909;27;45570;-74
2021/10/14 09:44:06;;;;;;;;;45.50;37.75;;;;;;;;5080239;27;45478;-74
2021/10/14 09:46:35;;;;;;;;;43.75;35.25;;;;;;;;5063880;27;47021;-74
2021/10/14 09:49:01;;;;;;;;;41.00;32.75;;;;;;;;5079002;27;45341;-74
2021/10/14 09:51:26;;;;;;;;;26.75;26.00;;;;;;;;5075254;27;45398;-74
2021/10/14 09:53:52;;;;;;;;;34.50;33.25;;;;;;;;5079195;27;45327;-75
2021/10/14 09:56:17;;;;;;;;;34.75;32.00;;;;;;;;5080783;27;46110;-73
2021/10/14 09:58:42;;;;;;;;;33.25;30.00;;;;;;;;5079153;27;45337;-73
2021/10/14 10:01:08;;;;;;;;;19.00;16.75;;;;;;;;5079372;27;45276;-74
2021/10/14 10:03:34;;;;;;;;;13.00;11.50;;;;;;;;5078391;27;45367;-73
2021/10/14 10:06:02;;;;;;;;;14.75;11.25;;;;;;;;5076851;27;46324;-74
2021/10/14 10:08:29;;;;;;;;;11.25;10.00;;;;;;;;5081635;27;45247;-74
2021/10/14 10:10:57;;;;;;;;;13.50;13.00;;;;;;;;5078838;27;45343;-73
2021/10/14 10:13:22;;;;;;;;;7.00;7.00;;;;;;;;5078910;27;45528;-75
2021/10/14 10:15:48;;;;;;;;;8.50;7.00;;;;;;;;5078279;27;45534;-75
2021/10/14 10:18:37;;;;;;;;;17.50;15.50;;;;;;;;5074601;27;45451;-73
2021/10/14 10:21:06;;;;;;;;;16.50;14.75;;;;;;;;5090728;27;45343;-73
2021/10/14 10:23:52;;;;;;;;;6.75;5.25;;;;;;;;5080231;27;45379;-74
2021/10/14 10:26:32;;;;;;;;;2.67;2.67;;;;;;;;5079161;27;46539;-74
2021/10/14 10:28:58;;;;;;;;;8.00;7.25;;;;;;;;5077967;27;45498;-74
2021/10/14 10:31:23;;;;;;;;;5.00;3.50;;;;;;;;5078282;27;45554;-73
2021/10/14 10:34:01;;;;;;;;;6.00;5.33;;;;;;;;5078850;27;45438;-74
2021/10/14 10:36:46;;;;;;;;;2.00;2.00;;;;;;;;5075624;27;47003;-74
2021/10/14 10:39:30;;;;;;;;;5.00;5.00;;;;;;;;5057997;27;45389;-73
2021/10/14 10:42:12;;;;;;;;;5.67;3.67;;;;;;;;5089384;27;45326;-73
2021/10/14 10:44:41;;;;;;;;;7.33;7.00;;;;;;;;5080921;27;45285;-73
2021/10/14 10:47:26;;;;;;;;;8.00;7.25;;;;;;;;5079011;27;46264;-74
2021/10/14 10:49:53;;;;;;;;;10.25;9.25;;;;;;;;5077818;27;45550;-74
2021/10/14 10:52:34;;;;;;;;;12.50;12.50;;;;;;;;5078684;27;45420;-74
2021/10/14 10:55:03;;;;;;;;;13.25;11.25;;;;;;;;5078910;27;45410;-74
2021/10/14 10:57:48;;;;;;;;;14.75;10.00;;;;;;;;5076476;27;45495;-74
2021/10/14 11:00:13;;;;;;;;;10.33;8.33;;;;;;;;5059130;28;45999;-74
2021/10/14 11:02:39;;;;;;;;;7.75;6.00;;;;;;;;5063812;27;45363;-73
2021/10/14 11:05:05;;;;;;;;;5.00;5.00;;;;;;;;5077340;27;45435;-74
2021/10/14 11:07:30;;;;;;;;;12.00;9.00;;;;;;;;5078089;27;46851;-75
2021/10/14 11:09:55;;;;;;;;;10.33;8.33;;;;;;;;5078805;27;45336;-74
2021/10/14 11:12:20;;;;;;;;;2.00;2.00;;;;;;;;5074538;27;45386;-75
2021/10/14 11:14:46;;;;;;;;;14.00;10.00;;;;;;;;5043771;28;47100;-73
2021/10/14 11:17:11;;;;;;;;;5.00;5.00;;;;;;;;5078885;27;45880;-75
2021/10/14 11:19:39;;;;;;;;;9.67;7.33;;;;;;;;5078059;27;45462;-74
2021/10/14 11:22:15;;;;;;;;;8.00;8.00;;;;;;;;5076704;27;45558;-74
2021/10/14 11:24:41;;;;;;;;;7.00;7.00;;;;;;;;5076979;27;45402;-74
2021/10/14 11:27:11;;;;;;;;;8.67;8.67;;;;;;;;5073799;27;46463;-73
2021/10/14 11:29:37;;;;;;;;;7.67;7.67;;;;;;;;5079599;27;45323;-74
2021/10/14 11:32:04;;;;;;;;;5.33;5.33;;;;;;;;5058735;28;45450;-74
2021/10/14 11:34:29;;;;;;;;;8.33;8.00;;;;;;;;5076358;27;45430;-74
2021/10/14 11:36:56;;;;;;;;;7.00;7.00;;;;;;;;5077688;27;45541;-74
2021/10/14 11:39:41;;;;;;;;;6.67;5.33;;;;;;;;5072702;27;45401;-75
2021/10/14 11:42:09;;;;;;;;;10.33;8.67;;;;;;;;5072346;27;45359;-75
2021/10/14 11:44:36;;;;;;;;;5.33;4.33;;;;;;;;5078676;27;45702;-73
2021/10/14 11:47:02;;;;;;;;;7.67;7.00;;;;;;;;5076530;27;46278;-74
2021/10/14 11:49:28;;;;;;;;;5.67;5.67;;;;;;;;5076503;27;45486;-74
2021/10/14 11:51:54;;;;;;;;;11.67;7.67;;;;;;;;5078467;27;45404;-74
2021/10/14 11:54:20;;;;;;;;;5.67;5.00;;;;;;;;5074349;27;45241;-74
2021/10/14 11:56:49;;;;;;;;;6.00;6.00;;;;;;;;5076976;27;45958;-73
2021/10/14 11:59:18;;;;;;;;;7.33;7.33;;;;;;;;5076248;27;45510;-73
2021/10/14 12:02:03;;;;;;;;;6.67;6.67;;;;;;;;5076899;27;45338;-74
2021/10/14 12:04:31;;;;;;;;;8.67;6.33;;;;;;;;5076493;27;45571;-74
2021/10/14 12:06:57;;;;;;;;;10.00;8.00;;;;;;;;5077106;27;46956;-74
2021/10/14 12:09:23;;;;;;;;;6.33;6.33;;;;;;;;5073836;27;45591;-73
2021/10/14 12:11:49;;;;;;;;;6.00;6.00;;;;;;;;5076790;27;45371;-74
2021/10/14 12:14:22;;;;;;;;;8.00;7.00;;;;;;;;5077441;27;45370;-74
2021/10/14 12:17:02;;;;;;;;;6.00;5.00;;;;;;;;5076419;27;46236;-73
2021/10/14 12:19:35;;;;;;;;;4.67;4.00;;;;;;;;5074672;27;45175;-72
2021/10/14 12:22:04;;;;;;;;;7.33;6.00;;;;;;;;5074782;27;45576;-74
2021/10/14 12:24:31;;;;;;;;;6.00;6.00;;;;;;;;5074813;27;45490;-73
2021/10/14 12:26:57;;;;;;;;;4.00;4.00;;;;;;;;5073845;27;46267;-73
2021/10/14 12:29:30;;;;;;;;;5.67;4.00;;;;;;;;5077699;27;45551;-74
2021/10/14 12:32:04;;;;;;;;;5.00;5.00;;;;;;;;5076667;27;45376;-74
2021/10/14 12:34:44;;;;;;;;;4.67;4.67;;;;;;;;5076548;27;45459;-73
2021/10/14 12:37:10;;;;;;;;;4.67;4.67;;;;;;;;5075867;27;46244;-74
2021/10/14 12:39:36;;;;;;;;;8.00;6.00;;;;;;;;5074139;27;45605;-74
2021/10/14 12:42:01;;;;;;;;;5.00;5.00;;;;;;;;5055203;28;47873;-73
2021/10/14 12:44:37;;;;;;;;;9.00;7.00;;;;;;;;5077988;27;45434;-75
2021/10/14 12:47:18;;;;;;;;;7.33;7.33;;;;;;;;5075168;27;47134;-73
2021/10/14 12:52:34;;;;;;;;;7.00;6.00;;;;;;;;5076378;27;45356;-73
2021/10/14 12:55:06;;;;;;;;;8.33;6.33;;;;;;;;5075687;27;45465;-74
2021/10/14 12:57:32;;;;;;;;;8.00;6.00;;;;;;;;5073028;27;46563;-73
2021/10/14 12:59:57;;;;;;;;;8.67;8.00;;;;;;;;5074450;27;45557;-74
2021/10/14 13:02:22;;;;;;;;;10.75;8.75;;;;;;;;5075981;27;45422;-75
2021/10/14 13:04:47;;;;;;;;;9.67;9.00;;;;;;;;5076885;27;45287;-74
2021/10/14 13:07:12;;;;;;;;;8.00;7.00;;;;;;;;5057569;28;48369;-74
2021/10/14 13:09:38;;;;;;;;;6.00;6.00;;;;;;;;5074400;27;45384;-75
2021/10/14 13:12:03;;;;;;;;;5.67;5.67;;;;;;;;5073183;27;45194;-73
2021/10/14 13:14:36;;;;;;;;;7.33;7.33;;;;;;;;5078627;27;45454;-74
2021/10/14 13:17:02;;;;;;;;;8.00;5.33;;;;;;;;5075727;27;47127;-74
2021/10/14 13:19:27;;;;;;;;;5.67;5.67;;;;;;;;5076000;27;45185;-73
2021/10/14 13:21:52;;;;;;;;;8.25;6.75;;;;;;;;5076448;27;45381;-73
2021/10/14 13:24:18;;;;;;;;;6.50;6.25;;;;;;;;5072103;27;45470;-74
2021/10/14 13:26:43;;;;;;;;;7.00;5.67;;;;;;;;5077536;27;46340;-74
2021/10/14 13:29:10;;;;;;;;;7.33;6.67;;;;;;;;5074443;27;47002;-74
2021/10/14 13:31:35;;;;;;;;;8.33;7.00;;;;;;;;5075704;27;45514;-73
2021/10/14 13:34:01;;;;;;;;;8.00;8.00;;;;;;;;5075782;27;45432;-74
2021/10/14 13:36:26;;;;;;;;;5.50;5.50;;;;;;;;5071587;27;45993;-74
2021/10/14 13:38:54;;;;;;;;;3.67;3.67;;;;;;;;5074662;27;45435;-74
2021/10/14 13:41:22;;;;;;;;;6.50;5.25;;;;;;;;5075242;27;45481;-74
2021/10/14 13:43:52;;;;;;;;;5.67;4.67;;;;;;;;5075516;27;45435;-74
2021/10/14 13:46:17;;;;;;;;;1.00;1.00;;;;;;;;5075051;27;46157;-74
2021/10/14 13:48:42;;;;;;;;;5.00;4.00;;;;;;;;5056630;27;45485;-74
2021/10/14 13:51:08;;;;;;;;;5.67;4.00;;;;;;;;5072174;27;45486;-74
2021/10/14 13:53:33;;;;;;;;;8.67;4.33;;;;;;;;5093368;27;45421;-74
2021/10/14 13:55:58;;;;;;;;;15.00;12.75;;;;;;;;5075395;27;46336;-74
2021/10/14 13:58:23;;;;;;;;;5.00;4.00;;;;;;;;5075509;27;45370;-74
2021/10/14 14:00:49;;;;;;;;;4.33;4.33;;;;;;;;5075664;27;45474;-73
2021/10/14 14:03:16;;;;;;;;;7.00;6.00;;;;;;;;5071289;27;45369;-73
2021/10/14 14:05:46;;;;;;;;;4.00;4.00;;;;;;;;5085023;27;46066;-74
2021/10/14 14:08:12;;;;;;;;;5.67;5.00;;;;;;;;5072766;27;45325;-72
2021/10/14 14:10:37;;;;;;;;;5.00;5.00;;;;;;;;5056991;27;45371;-74
2021/10/14 14:13:04;;;;;;;;;8.33;7.00;;;;;;;;5075419;27;45339;-72
2021/10/14 14:15:30;;;;;;;;;6.33;6.00;;;;;;;;5071296;27;45354;-74
2021/10/14 14:17:56;;;;;;;;;5.33;3.67;;;;;;;;5073371;27;45653;-73
2021/10/14 14:20:22;;;;;;;;;7.67;6.67;;;;;;;;5076807;27;45511;-74
2021/10/14 14:22:47;;;;;;;;;4.00;4.00;;;;;;;;5076877;27;45454;-73